Terminal Aerodrome Forecast
Issued by NWS

Home | Current Version | Previous Version | Text Only | Print | Product List | Glossary On
Versions: 1 2 3 4 5 6 7 8 9 10 11 12 13 14 15 16 17 18 19
404
FTUS41 KBGM 282320
TAFRME
TAF
KRME 282320Z 2900/2924 12008KT P6SM FEW050
     FM290300 11008KT P6SM BKN110
     FM290700 09008KT P6SM OVC025
     FM291600 10011G20KT P6SM OVC050
     FM292200 09007KT P6SM SCT090=

USA.gov is the U.S. government's official web portal to all federal, state and local government web resources and services.